Time;durP1;ratioP1;P1;durP2;ratioP2;P2;SDS_P1;SDS_P2;PMS_P1;PMS_P2;Temp;Humidity;BMP_temperature;BMP_pressure;BME280_temperature;BME280_humidity;BME280_pressure;Samples;Min_cycle;Max_cycle;Signal;HPM_P1;HPM_P2
2021/12/20 00:00:38;;;;;;;32.10;5.95;;;6.10;99.90;;;;;;5079779;28;20060;-86
2021/12/20 00:03:04;;;;;;;36.67;5.82;;;6.10;99.90;;;;;;5114433;28;20047;-86
2021/12/20 00:05:29;;;;;;;33.10;5.90;;;6.10;99.90;;;;;;5080426;28;20193;-85
2021/12/20 00:07:55;;;;;;;39.05;5.70;;;6.10;99.90;;;;;;5080086;28;20523;-85
2021/12/20 00:10:21;;;;;;;25.92;5.00;;;6.10;99.90;;;;;;5097247;28;20050;-85
2021/12/20 00:12:47;;;;;;;35.85;5.18;;;6.00;99.90;;;;;;5096638;28;20062;-85
2021/12/20 00:15:12;;;;;;;35.13;5.95;;;6.90;99.90;;;;;;5097121;28;20047;-85
2021/12/20 00:17:38;;;;;;;35.03;5.60;;;5.90;99.90;;;;;;5096432;28;20058;-85
2021/12/20 00:20:05;;;;;;;30.55;5.13;;;5.90;99.90;;;;;;5097019;28;20501;-85
2021/12/20 00:22:31;;;;;;;31.92;4.53;;;5.90;99.90;;;;;;5080205;28;20173;-86
2021/12/20 00:24:56;;;;;;;36.78;5.90;;;5.90;99.90;;;;;;5096138;28;20154;-85
2021/12/20 00:27:22;;;;;;;34.70;6.25;;;5.90;99.90;;;;;;5096774;28;20063;-84
2021/12/20 00:29:48;;;;;;;29.67;5.95;;;5.90;99.90;;;;;;5096342;28;20501;-85
2021/12/20 00:32:17;;;;;;;31.85;5.22;;;5.80;99.90;;;;;;5113729;28;20104;-85
2021/12/20 00:34:43;;;;;;;38.47;5.82;;;6.10;99.90;;;;;;5096033;28;20052;-86
2021/12/20 00:42:41;;;;;;;32.03;5.63;;;5.70;99.90;;;;;;5098483;28;20055;-85
2021/12/20 00:45:08;;;;;;;34.15;5.32;;;5.70;99.90;;;;;;5113400;28;20075;-86
2021/12/20 00:47:33;;;;;;;31.60;5.03;;;5.60;99.90;;;;;;5079710;28;20476;-85
2021/12/20 00:49:59;;;;;;;42.10;5.57;;;5.60;99.90;;;;;;5079025;28;20100;-84
2021/12/20 00:52:25;;;;;;;29.73;4.65;;;5.60;99.90;;;;;;5079301;28;20043;-86
2021/12/20 00:54:51;;;;;;;34.45;6.28;;;5.50;99.90;;;;;;5095934;28;20395;-86
2021/12/20 00:57:16;;;;;;;32.67;5.10;;;5.50;99.90;;;;;;5113230;28;20047;-85
2021/12/20 00:59:42;;;;;;;33.22;4.68;;;5.50;99.90;;;;;;5095622;28;20086;-85
2021/12/20 01:02:08;;;;;;;39.50;5.60;;;5.40;99.90;;;;;;5112804;28;20043;-86
2021/12/20 01:04:33;;;;;;;34.97;4.93;;;5.70;99.90;;;;;;5112021;28;20052;-85
2021/12/20 01:06:59;;;;;;;36.75;4.97;;;5.40;99.90;;;;;;5095483;28;20478;-85
2021/12/20 01:09:25;;;;;;;26.77;4.45;;;5.60;99.90;;;;;;5113199;28;20043;-85
2021/12/20 01:11:53;;;;;;;25.52;4.35;;;5.40;99.90;;;;;;5095467;28;20043;-85
2021/12/20 01:14:24;;;;;;;25.98;4.50;;;5.40;99.90;;;;;;5096153;28;20450;-85
2021/12/20 01:16:50;;;;;;;38.10;5.70;;;5.30;99.90;;;;;;5063091;28;20058;-85
2021/12/20 01:19:16;;;;;;;31.40;5.10;;;5.20;99.90;;;;;;5113970;28;20052;-86
2021/12/20 01:21:41;;;;;;;38.28;4.72;;;5.20;99.90;;;;;;5112574;28;20491;-84
2021/12/20 01:24:07;;;;;;;26.83;4.93;;;5.10;99.90;;;;;;5078497;28;20052;-85
2021/12/20 01:26:34;;;;;;;27.70;4.10;;;5.00;99.90;;;;;;5111983;28;20492;-86
2021/12/20 01:29:00;;;;;;;30.90;4.82;;;5.10;99.90;;;;;;5112051;28;20582;-86
2021/12/20 01:31:25;;;;;;;28.50;4.47;;;4.90;99.90;;;;;;5078779;28;20052;-85
2021/12/20 01:33:51;;;;;;;33.03;5.80;;;5.00;99.90;;;;;;5111484;28;20087;-86
2021/12/20 01:36:16;;;;;;;31.35;4.55;;;4.80;99.90;;;;;;5112422;28;20094;-86
2021/12/20 01:38:42;;;;;;;36.25;4.72;;;5.30;99.90;;;;;;5095347;28;20054;-86
2021/12/20 01:41:09;;;;;;;27.63;4.78;;;4.90;99.90;;;;;;5111937;28;20055;-84
2021/12/20 01:43:36;;;;;;;34.40;4.53;;;4.70;99.90;;;;;;5095708;28;20051;-84
2021/12/20 01:46:02;;;;;;;30.95;4.70;;;4.70;99.90;;;;;;5111479;28;20047;-85
2021/12/20 01:48:29;;;;;;;31.63;5.85;;;4.70;99.90;;;;;;5095283;28;20048;-85
2021/12/20 01:53:33;;;;;;;27.20;5.38;;;4.70;99.90;;;;;;5112045;28;20398;-87
2021/12/20 01:55:59;;;;;;;32.72;5.25;;;4.70;99.90;;;;;;5094382;28;20044;-84
2021/12/20 01:58:26;;;;;;;25.25;3.85;;;4.90;99.90;;;;;;5095146;28;20047;-86
2021/12/20 02:03:51;;;;;;;29.02;5.15;;;4.80;99.90;;;;;;5098203;28;20048;-84
2021/12/20 02:08:46;;;;;;;43.15;5.10;;;4.70;99.90;;;;;;5095249;28;20056;-85
2021/12/20 02:11:11;;;;;;;32.22;4.25;;;4.70;99.90;;;;;;5094347;28;20153;-85
2021/12/20 02:13:38;;;;;;;23.98;4.03;;;4.60;99.90;;;;;;5111787;28;20499;-86
2021/12/20 02:16:04;;;;;;;28.63;4.28;;;4.80;99.90;;;;;;5093948;28;20154;-86
2021/12/20 02:18:30;;;;;;;20.77;4.15;;;4.70;99.90;;;;;;5077803;28;20063;-85
2021/12/20 02:20:57;;;;;;;25.48;3.63;;;4.80;99.90;;;;;;5077301;28;20108;-85
2021/12/20 02:23:22;;;;;;;21.83;3.88;;;4.90;99.90;;;;;;5077800;28;20086;-86
2021/12/20 02:25:48;;;;;;;26.27;3.63;;;4.80;99.90;;;;;;5111177;28;20105;-86
2021/12/20 02:28:15;;;;;;;25.90;3.80;;;4.80;99.90;;;;;;5060600;28;20539;-85
2021/12/20 02:38:49;;;;;;;22.85;4.00;;;4.90;99.90;;;;;;5094767;28;20058;-86
2021/12/20 02:41:18;;;;;;;19.90;3.97;;;4.60;99.90;;;;;;5110766;28;20495;-86
2021/12/20 02:43:52;;;;;;;22.15;3.90;;;5.10;99.90;;;;;;5094525;28;20047;-86
2021/12/20 02:46:27;;;;;;;25.80;4.88;;;5.10;99.90;;;;;;5078965;28;20048;-86
2021/12/20 02:48:52;;;;;;;20.17;3.85;;;4.40;99.90;;;;;;5111100;28;20108;-84
2021/12/20 02:51:18;;;;;;;19.63;3.38;;;4.30;99.90;;;;;;5110717;28;20043;-86
2021/12/20 02:53:44;;;;;;;21.02;3.75;;;4.30;99.90;;;;;;5077251;28;20558;-86
2021/12/20 02:56:09;;;;;;;24.38;4.05;;;4.30;99.90;;;;;;5093594;28;20138;-86
2021/12/20 02:58:35;;;;;;;21.33;3.50;;;4.20;99.90;;;;;;5111035;28;20091;-86
2021/12/20 03:01:01;;;;;;;17.13;3.20;;;4.20;99.90;;;;;;5093218;28;20088;-87
2021/12/20 03:03:26;;;;;;;21.98;3.30;;;4.10;99.90;;;;;;5094003;28;20104;-86
2021/12/20 03:05:52;;;;;;;15.98;2.80;;;4.30;99.90;;;;;;5093733;28;20039;-87
2021/12/20 03:08:21;;;;;;;22.02;3.25;;;4.40;99.90;;;;;;5076479;28;20058;-86
2021/12/20 03:10:47;;;;;;;29.92;3.70;;;3.90;99.90;;;;;;5093967;28;20047;-87
2021/12/20 03:13:13;;;;;;;18.55;3.45;;;3.90;99.90;;;;;;5110134;28;20125;-86
2021/12/20 03:15:39;;;;;;;16.75;2.92;;;3.80;99.90;;;;;;5110715;28;20062;-86
2021/12/20 03:18:05;;;;;;;19.92;2.92;;;4.80;99.90;;;;;;5092891;28;20040;-86
2021/12/20 03:20:31;;;;;;;17.50;2.58;;;3.70;99.90;;;;;;5093380;28;20054;-86
2021/12/20 03:22:57;;;;;;;18.17;3.00;;;4.00;99.90;;;;;;5093362;28;20063;-86
2021/12/20 03:25:22;;;;;;;19.23;3.08;;;3.70;99.90;;;;;;5092656;28;20056;-86
2021/12/20 03:27:48;;;;;;;16.38;2.80;;;3.60;99.90;;;;;;5109890;28;20046;-86
2021/12/20 03:30:14;;;;;;;15.60;2.65;;;3.50;99.90;;;;;;5092594;28;20040;-87
2021/12/20 03:32:39;;;;;;;17.48;2.80;;;3.40;99.90;;;;;;5110381;28;20056;-87
2021/12/20 03:35:06;;;;;;;14.05;3.10;;;3.40;99.90;;;;;;5075890;28;20424;-87
2021/12/20 03:37:31;;;;;;;15.63;2.50;;;3.30;99.90;;;;;;5093479;28;20138;-87
2021/12/20 03:39:57;;;;;;;18.55;3.78;;;3.20;99.90;;;;;;5093176;28;20126;-87
2021/12/20 03:42:23;;;;;;;21.10;4.15;;;3.40;99.90;;;;;;5076154;28;20055;-87
2021/12/20 03:44:49;;;;;;;14.60;3.08;;;3.30;99.90;;;;;;5110375;28;20506;-86
2021/12/20 03:47:15;;;;;;;27.20;3.20;;;3.00;99.90;;;;;;5092961;28;20388;-86
2021/12/20 03:49:41;;;;;;;21.55;3.35;;;3.00;99.90;;;;;;5093423;28;20433;-86
2021/12/20 03:52:08;;;;;;;20.45;3.50;;;3.10;99.90;;;;;;5076267;28;20128;-86
2021/12/20 03:54:34;;;;;;;20.83;4.38;;;2.90;99.90;;;;;;5076691;28;20051;-86
2021/12/20 03:56:59;;;;;;;14.40;3.75;;;2.80;99.90;;;;;;5093296;28;20578;-86
2021/12/20 03:59:27;;;;;;;21.15;2.88;;;3.40;99.90;;;;;;5109585;28;20047;-86
2021/12/20 04:01:53;;;;;;;17.58;3.25;;;4.00;99.90;;;;;;5093405;28;20047;-86
2021/12/20 04:04:19;;;;;;;15.73;2.67;;;3.30;99.90;;;;;;5092668;28;20138;-87
2021/12/20 04:06:44;;;;;;;23.55;3.42;;;2.70;99.90;;;;;;5109897;28;20081;-86
2021/12/20 04:09:10;;;;;;;17.48;2.97;;;2.70;99.90;;;;;;5092640;28;20110;-86
2021/12/20 04:11:36;;;;;;;20.05;3.05;;;2.70;99.90;;;;;;5093105;28;20105;-86
2021/12/20 04:14:01;;;;;;;22.20;3.00;;;2.60;99.90;;;;;;5109843;28;20108;-86
2021/12/20 04:16:29;;;;;;;19.27;2.72;;;2.60;99.90;;;;;;5109509;28;20098;-86
2021/12/20 04:18:54;;;;;;;19.92;3.20;;;2.50;99.90;;;;;;5110080;28;20051;-86
2021/12/20 04:21:20;;;;;;;15.52;2.67;;;3.00;99.90;;;;;;5058935;28;20051;-86
2021/12/20 04:23:46;;;;;;;19.55;3.05;;;2.40;99.90;;;;;;5092915;28;20105;-86
2021/12/20 04:26:12;;;;;;;12.15;2.22;;;2.40;99.90;;;;;;5108521;28;20058;-86
2021/12/20 04:28:37;;;;;;;16.83;3.40;;;2.30;99.90;;;;;;5109919;28;20495;-86
2021/12/20 04:31:03;;;;;;;15.27;3.15;;;2.30;99.90;;;;;;5109781;28;20380;-85
2021/12/20 04:33:29;;;;;;;16.55;3.08;;;2.30;99.90;;;;;;5109067;28;20109;-86
2021/12/20 04:35:54;;;;;;;18.33;2.63;;;2.40;99.90;;;;;;5076099;28;20043;-87
2021/12/20 04:38:21;;;;;;;21.23;3.10;;;2.20;99.90;;;;;;5108909;28;20066;-86
2021/12/20 04:40:46;;;;;;;22.42;3.20;;;2.20;99.90;;;;;;5113719;28;20057;-86
2021/12/20 04:43:12;;;;;;;15.40;3.13;;;2.10;99.90;;;;;;5112955;28;20043;-86
2021/12/20 04:45:38;;;;;;;16.23;2.78;;;2.10;99.90;;;;;;5096494;28;20073;-86
2021/12/20 04:48:04;;;;;;;12.38;3.15;;;2.00;99.90;;;;;;5079485;28;20039;-86
2021/12/20 04:50:29;;;;;;;21.23;3.25;;;2.00;99.90;;;;;;5095938;28;20051;-86
2021/12/20 04:52:56;;;;;;;21.15;3.47;;;2.70;99.90;;;;;;5079744;28;20054;-87
2021/12/20 04:55:22;;;;;;;22.67;3.58;;;1.90;99.90;;;;;;5079016;28;20055;-85
2021/12/20 04:57:48;;;;;;;21.42;3.20;;;1.90;99.90;;;;;;5113522;28;20051;-86
2021/12/20 05:00:17;;;;;;;17.88;2.97;;;1.90;99.90;;;;;;5078908;28;20069;-86
2021/12/20 05:02:43;;;;;;;18.45;4.38;;;1.80;99.90;;;;;;5113435;28;20051;-87
2021/12/20 05:05:10;;;;;;;29.63;3.72;;;1.80;99.90;;;;;;5079642;28;20512;-86
2021/12/20 05:07:37;;;;;;;17.33;3.03;;;1.80;99.90;;;;;;5078919;28;20047;-87
2021/12/20 05:10:05;;;;;;;19.33;3.47;;;3.00;99.90;;;;;;5113158;28;20054;-87
2021/12/20 05:12:31;;;;;;;19.45;3.10;;;1.80;99.90;;;;;;5112732;28;20173;-86
2021/12/20 05:14:56;;;;;;;19.40;3.30;;;1.70;99.90;;;;;;5113114;28;20520;-86
2021/12/20 05:17:22;;;;;;;21.20;3.28;;;1.70;99.90;;;;;;5112486;28;20526;-86
2021/12/20 05:19:48;;;;;;;23.67;3.90;;;3.10;99.90;;;;;;5113115;28;20467;-86
2021/12/20 05:22:13;;;;;;;22.02;4.35;;;1.60;99.90;;;;;;5112462;28;20495;-84
2021/12/20 05:24:39;;;;;;;16.40;2.90;;;1.70;99.90;;;;;;5095751;28;20074;-86
2021/12/20 05:27:05;;;;;;;24.65;3.38;;;1.60;99.90;;;;;;5095682;28;20063;-86
2021/12/20 05:29:31;;;;;;;24.42;4.05;;;1.90;99.90;;;;;;5112401;28;20460;-86
2021/12/20 05:31:57;;;;;;;17.10;3.33;;;1.50;99.90;;;;;;5095630;28;20194;-86
2021/12/20 05:34:24;;;;;;;25.23;3.50;;;1.60;99.90;;;;;;5078571;28;20403;-87
2021/12/20 05:36:49;;;;;;;17.83;3.45;;;1.80;99.90;;;;;;5079082;28;20456;-87
2021/12/20 05:39:15;;;;;;;22.98;3.70;;;1.60;99.90;;;;;;5112670;28;20052;-87
2021/12/20 05:41:41;;;;;;;22.30;3.90;;;1.50;99.90;;;;;;5112123;28;20502;-86
2021/12/20 05:44:06;;;;;;;20.73;3.63;;;1.50;99.90;;;;;;5112439;28;20063;-87
2021/12/20 05:46:32;;;;;;;21.20;3.22;;;1.50;99.90;;;;;;5111324;28;20051;-87
2021/12/20 05:48:58;;;;;;;23.38;3.83;;;1.90;99.90;;;;;;5112086;28;20079;-87
2021/12/20 05:51:23;;;;;;;19.45;4.43;;;1.40;99.90;;;;;;5077441;28;20048;-86
2021/12/20 05:53:49;;;;;;;22.55;3.33;;;1.40;99.90;;;;;;5112281;28;20078;-86
2021/12/20 05:56:15;;;;;;;21.50;3.38;;;1.30;99.90;;;;;;5095349;28;20047;-84
2021/12/20 05:58:40;;;;;;;18.98;3.70;;;1.50;99.90;;;;;;5094770;28;20051;-86
2021/12/20 06:01:06;;;;;;;16.10;3.17;;;2.20;99.90;;;;;;5078823;28;20126;-85
2021/12/20 06:03:32;;;;;;;18.13;3.75;;;1.30;99.90;;;;;;5094745;28;20095;-86
2021/12/20 06:05:57;;;;;;;25.17;4.68;;;1.30;99.90;;;;;;5095160;28;20130;-85
2021/12/20 06:08:23;;;;;;;21.08;2.97;;;2.30;99.90;;;;;;5094990;28;20051;-86
2021/12/20 06:10:49;;;;;;;14.32;3.00;;;1.20;99.90;;;;;;5095077;28;20096;-85
2021/12/20 06:13:14;;;;;;;21.90;3.33;;;1.20;99.90;;;;;;5095004;28;20059;-86
2021/12/20 06:15:40;;;;;;;17.75;3.10;;;1.10;99.90;;;;;;5077476;28;20100;-86
2021/12/20 06:18:06;;;;;;;23.13;4.18;;;1.40;99.90;;;;;;5077984;28;20051;-86
2021/12/20 06:20:31;;;;;;;19.13;3.63;;;2.00;99.90;;;;;;5111365;28;20055;-85
2021/12/20 06:22:57;;;;;;;17.98;3.30;;;1.00;99.90;;;;;;5094773;28;20072;-85
2021/12/20 06:25:23;;;;;;;21.90;5.15;;;1.50;99.90;;;;;;5094044;28;20048;-84
2021/12/20 06:27:48;;;;;;;28.67;3.35;;;1.00;99.90;;;;;;5094519;28;20052;-86
2021/12/20 06:30:14;;;;;;;19.10;3.67;;;1.60;99.90;;;;;;5111404;28;20052;-86
2021/12/20 06:32:41;;;;;;;19.83;3.83;;;0.90;99.90;;;;;;5094075;28;20043;-86
2021/12/20 06:35:07;;;;;;;24.42;4.13;;;0.90;99.90;;;;;;5061286;28;20065;-90
2021/12/20 06:37:33;;;;;;;20.95;3.65;;;0.90;99.90;;;;;;5094095;28;20097;-86
2021/12/20 06:39:59;;;;;;;13.07;3.65;;;0.90;99.90;;;;;;5112008;28;20426;-90
2021/12/20 06:42:25;;;;;;;21.88;4.82;;;0.90;99.90;;;;;;5094733;28;20052;-85
2021/12/20 06:44:50;;;;;;;21.15;4.38;;;1.20;99.90;;;;;;5077689;28;20047;-88
2021/12/20 06:47:16;;;;;;;19.48;5.20;;;1.00;99.90;;;;;;5114121;27;20476;-89
2021/12/20 06:49:42;;;;;;;25.35;7.40;;;0.70;99.90;;;;;;5112706;27;20052;-88
2021/12/20 06:52:08;;;;;;;31.40;9.95;;;0.70;99.90;;;;;;5094278;28;20051;-88
2021/12/20 06:54:33;;;;;;;39.78;11.88;;;1.50;99.90;;;;;;5110126;28;20043;-88
2021/12/20 06:56:59;;;;;;;34.90;11.65;;;0.70;99.90;;;;;;5110483;28;20059;-87
2021/12/20 06:59:25;;;;;;;33.05;11.43;;;0.70;99.90;;;;;;5111868;28;20044;-89
2021/12/20 07:01:51;;;;;;;27.63;9.48;;;0.70;99.90;;;;;;5076069;28;20083;-88
2021/12/20 07:04:16;;;;;;;31.98;7.65;;;0.70;99.90;;;;;;5065650;28;20077;-90
2021/12/20 07:06:42;;;;;;;24.33;6.95;;;0.60;99.90;;;;;;5093492;28;20479;-89
2021/12/20 07:09:09;;;;;;;22.42;7.90;;;0.60;99.90;;;;;;5094063;28;20051;-89
2021/12/20 07:11:34;;;;;;;26.77;7.22;;;0.60;99.90;;;;;;5076478;28;20095;-85
2021/12/20 07:14:00;;;;;;;22.27;5.75;;;1.60;99.90;;;;;;5093533;28;20104;-85
2021/12/20 07:16:26;;;;;;;23.95;7.15;;;1.30;99.90;;;;;;5110704;28;20055;-85
2021/12/20 07:18:51;;;;;;;22.10;5.80;;;1.70;99.90;;;;;;5110284;28;20051;-86
2021/12/20 07:21:17;;;;;;;21.95;7.55;;;0.40;99.90;;;;;;5093808;28;20047;-86
2021/12/20 07:23:43;;;;;;;20.35;6.00;;;0.40;99.90;;;;;;5126882;27;20047;-86
2021/12/20 07:26:12;;;;;;;22.60;5.68;;;0.40;99.90;;;;;;5092881;28;20087;-85
2021/12/20 07:28:39;;;;;;;22.38;5.70;;;0.40;99.90;;;;;;5127303;27;20074;-85
2021/12/20 07:31:05;;;;;;;18.95;4.88;;;0.80;99.90;;;;;;5093787;28;20503;-85
2021/12/20 07:33:30;;;;;;;23.35;5.22;;;0.40;99.90;;;;;;5110601;28;20055;-85
2021/12/20 07:35:56;;;;;;;23.10;5.57;;;0.30;99.90;;;;;;5093259;28;20467;-85
2021/12/20 07:38:22;;;;;;;24.13;5.40;;;0.30;99.90;;;;;;5110727;28;20055;-85
2021/12/20 07:40:48;;;;;;;26.17;5.43;;;0.30;99.90;;;;;;5110151;28;20142;-85
2021/12/20 07:43:15;;;;;;;21.02;6.03;;;0.30;99.90;;;;;;5110512;28;20050;-85
2021/12/20 07:45:42;;;;;;;31.80;6.88;;;0.30;99.90;;;;;;5092750;28;20563;-85
2021/12/20 07:48:07;;;;;;;23.35;6.47;;;1.00;99.90;;;;;;5076486;28;20503;-85
2021/12/20 07:50:33;;;;;;;27.60;6.15;;;0.90;99.90;;;;;;5127481;28;20076;-86
2021/12/20 07:52:59;;;;;;;20.17;5.82;;;0.30;99.90;;;;;;5076396;28;20076;-86
2021/12/20 07:55:25;;;;;;;28.23;6.68;;;0.30;99.90;;;;;;5093239;28;20092;-86
2021/12/20 07:57:51;;;;;;;30.95;6.40;;;0.20;99.90;;;;;;5093049;28;20130;-86
2021/12/20 08:00:17;;;;;;;21.10;6.05;;;0.40;99.90;;;;;;5127594;28;20135;-86
2021/12/20 08:02:43;;;;;;;32.85;7.78;;;0.30;99.90;;;;;;5092708;28;20055;-86
2021/12/20 08:05:09;;;;;;;32.28;8.50;;;0.30;99.90;;;;;;5093117;28;20104;-86
2021/12/20 08:07:35;;;;;;;21.35;7.47;;;0.30;99.90;;;;;;5109918;28;20415;-85
2021/12/20 08:10:00;;;;;;;34.63;7.65;;;0.40;99.90;;;;;;5075773;28;20052;-85
2021/12/20 08:12:26;;;;;;;37.95;8.10;;;0.40;99.90;;;;;;5093014;28;20043;-85
2021/12/20 08:14:52;;;;;;;27.30;7.55;;;1.60;99.90;;;;;;5129022;27;20047;-85
2021/12/20 08:17:17;;;;;;;38.63;6.22;;;1.10;99.90;;;;;;5113990;28;20087;-86
2021/12/20 08:19:43;;;;;;;43.58;7.55;;;0.40;99.90;;;;;;5096240;28;20795;-85
2021/12/20 08:22:09;;;;;;;26.15;6.22;;;0.40;99.90;;;;;;5096991;28;20056;-83
2021/12/20 08:24:34;;;;;;;30.23;5.70;;;1.60;99.90;;;;;;5130704;27;20043;-85
2021/12/20 08:27:00;;;;;;;27.98;6.43;;;0.40;99.90;;;;;;5096039;28;20615;-84
2021/12/20 08:29:26;;;;;;;28.33;6.32;;;1.40;99.90;;;;;;5113147;28;20035;-85
2021/12/20 08:31:51;;;;;;;23.00;6.40;;;0.50;99.90;;;;;;5112976;28;20520;-85
2021/12/20 08:34:17;;;;;;;24.17;6.30;;;0.70;99.90;;;;;;5079676;28;20118;-84
2021/12/20 08:36:43;;;;;;;25.20;5.60;;;0.70;99.90;;;;;;5112888;28;20047;-84
2021/12/20 08:39:08;;;;;;;25.50;5.30;;;0.80;99.90;;;;;;5079638;28;20048;-84
2021/12/20 08:41:34;;;;;;;23.48;6.30;;;2.20;99.90;;;;;;5113291;28;20124;-84
2021/12/20 08:44:00;;;;;;;22.60;5.70;;;1.00;99.90;;;;;;5078626;28;20051;-85
2021/12/20 08:46:26;;;;;;;25.17;5.55;;;1.30;99.90;;;;;;5096068;28;20048;-84
2021/12/20 08:48:52;;;;;;;24.23;5.57;;;1.80;99.90;;;;;;5095719;28;20094;-84
2021/12/20 08:51:17;;;;;;;21.50;5.30;;;2.90;99.90;;;;;;5113141;28;20058;-84
2021/12/20 08:53:43;;;;;;;23.45;6.22;;;2.60;99.90;;;;;;5113048;28;20055;-83
2021/12/20 08:56:11;;;;;;;18.50;5.13;;;4.30;99.90;;;;;;5095636;28;20055;-84
2021/12/20 08:58:36;;;;;;;26.27;6.40;;;3.70;99.90;;;;;;5095919;28;20048;-83
2021/12/20 09:01:02;;;;;;;19.50;5.25;;;4.40;99.90;;;;;;5095640;28;20046;-83
2021/12/20 09:03:28;;;;;;;23.85;4.38;;;5.30;99.90;;;;;;5114362;28;20047;-83
2021/12/20 09:05:53;;;;;;;19.83;4.30;;;5.80;99.90;;;;;;5112175;28;20446;-83
2021/12/20 09:08:21;;;;;;;13.20;4.35;;;6.10;99.90;;;;;;5112983;28;20044;-83
2021/12/20 09:10:47;;;;;;;14.75;4.82;;;6.20;99.90;;;;;;5112555;28;20500;-83
2021/12/20 09:13:12;;;;;;;15.52;4.93;;;6.30;99.90;;;;;;5095886;28;20105;-84
2021/12/20 09:15:38;;;;;;;21.25;5.75;;;6.30;99.90;;;;;;5112924;28;20052;-83
2021/12/20 09:18:04;;;;;;;21.33;6.53;;;6.10;99.90;;;;;;5113202;28;20059;-84
2021/12/20 09:20:30;;;;;;;23.48;6.65;;;6.50;99.90;;;;;;5095725;28;20057;-84
2021/12/20 09:23:07;;;;;;;21.50;6.20;;;6.30;99.90;;;;;;5111942;28;20533;-83
2021/12/20 09:25:34;;;;;;;17.58;4.75;;;6.40;99.90;;;;;;5095447;28;20124;-84
2021/12/20 09:28:00;;;;;;;18.20;5.25;;;6.10;99.90;;;;;;5078350;28;20090;-84
2021/12/20 09:30:28;;;;;;;25.02;6.47;;;5.80;99.90;;;;;;5112603;28;20058;-83
2021/12/20 09:32:53;;;;;;;21.95;6.18;;;5.50;99.90;;;;;;5078476;28;20051;-84
2021/12/20 09:35:19;;;;;;;27.23;9.80;;;5.10;99.90;;;;;;5078669;28;20427;-83
2021/12/20 09:37:49;;;;;;;29.90;11.95;;;5.00;99.90;;;;;;5112215;28;20517;-83
2021/12/20 09:40:15;;;;;;;29.20;13.73;;;4.80;99.90;;;;;;5094925;28;20052;-83
2021/12/20 09:42:52;;;;;;;32.28;16.80;;;4.90;99.90;;;;;;5112148;28;20067;-83
2021/12/20 09:45:19;;;;;;;31.30;14.15;;;5.00;99.90;;;;;;5112034;28;20047;-83
2021/12/20 09:47:45;;;;;;;25.35;9.43;;;4.70;99.90;;;;;;5095239;28;20056;-83
2021/12/20 09:50:12;;;;;;;27.67;10.43;;;4.80;99.90;;;;;;5111520;28;20047;-83
2021/12/20 09:52:38;;;;;;;25.65;11.95;;;4.80;99.90;;;;;;5095072;28;20059;-83
2021/12/20 09:55:05;;;;;;;25.85;10.00;;;4.60;99.90;;;;;;5111342;28;20479;-83
2021/12/20 09:57:31;;;;;;;28.23;9.65;;;4.30;99.90;;;;;;5095200;28;20491;-84
2021/12/20 09:59:57;;;;;;;31.55;12.30;;;4.40;99.90;;;;;;5077330;28;20043;-86
2021/12/20 10:02:22;;;;;;;32.78;10.77;;;5.30;99.90;;;;;;5078176;28;20054;-85
2021/12/20 10:04:48;;;;;;;33.75;10.18;;;4.70;99.90;;;;;;5095050;28;20051;-86
2021/12/20 10:07:18;;;;;;;29.75;10.80;;;4.70;99.90;;;;;;5110816;28;20177;-86
2021/12/20 10:09:47;;;;;;;32.00;10.07;;;5.10;99.90;;;;;;5111504;28;20051;-84
2021/12/20 10:12:17;;;;;;;34.75;10.30;;;4.70;99.90;;;;;;5112578;28;20513;-85
2021/12/20 10:14:52;;;;;;;29.58;9.23;;;4.90;99.90;;;;;;5094901;28;20047;-84
2021/12/20 10:17:17;;;;;;;26.25;8.52;;;5.10;99.90;;;;;;5111409;28;20055;-86
2021/12/20 10:19:43;;;;;;;28.15;9.13;;;5.20;99.90;;;;;;5094593;28;20054;-85
2021/12/20 10:22:25;;;;;;;30.73;9.95;;;5.60;99.90;;;;;;5094440;28;20083;-86
2021/12/20 10:24:51;;;;;;;30.88;9.25;;;5.10;99.90;;;;;;5110984;28;20075;-83
2021/12/20 10:27:32;;;;;;;31.23;8.98;;;4.90;99.90;;;;;;5110911;28;20058;-83
2021/12/20 10:29:59;;;;;;;25.38;8.27;;;4.70;99.90;;;;;;5090092;28;20173;-84
2021/12/20 10:32:42;;;;;;;30.40;9.45;;;4.60;99.90;;;;;;5099383;28;20039;-84
2021/12/20 10:35:36;;;;;;;28.20;8.27;;;4.40;99.90;;;;;;5074279;28;20050;-84
2021/12/20 10:38:18;;;;;;;27.60;8.10;;;4.60;99.90;;;;;;5091937;28;20136;-83
2021/12/20 10:41:12;;;;;;;25.70;7.40;;;4.50;99.90;;;;;;5096849;28;20040;-83
2021/12/20 10:43:49;;;;;;;23.63;6.97;;;4.50;99.90;;;;;;5078594;28;20504;-83
2021/12/20 10:46:19;;;;;;;32.38;6.32;;;4.60;99.90;;;;;;5095156;28;20149;-83
2021/12/20 10:48:47;;;;;;;25.23;5.55;;;4.70;99.90;;;;;;5111401;28;20379;-84
2021/12/20 10:51:22;;;;;;;22.77;5.82;;;4.80;99.90;;;;;;5094042;28;20070;-83
2021/12/20 10:53:55;;;;;;;30.05;7.28;;;5.00;99.90;;;;;;5077697;28;20574;-83
2021/12/20 10:56:20;;;;;;;26.20;5.95;;;4.50;99.90;;;;;;5095448;27;20051;-83
2021/12/20 10:58:46;;;;;;;29.77;6.55;;;4.40;99.90;;;;;;5110869;28;20464;-82
2021/12/20 11:01:16;;;;;;;27.45;6.50;;;4.30;99.90;;;;;;5110379;28;20472;-84
2021/12/20 11:03:43;;;;;;;29.63;6.55;;;4.20;99.90;;;;;;5094402;28;20047;-84
2021/12/20 11:06:24;;;;;;;26.73;6.90;;;4.10;99.90;;;;;;5093593;28;20051;-83
2021/12/20 11:09:05;;;;;;;29.85;6.90;;;4.00;99.90;;;;;;5095729;28;20082;-84
2021/12/20 11:11:33;;;;;;;21.70;7.10;;;4.20;99.90;;;;;;5079196;28;20052;-87
2021/12/20 11:13:59;;;;;;;29.38;7.32;;;3.90;99.90;;;;;;5094033;28;20043;-86
2021/12/20 11:16:27;;;;;;;27.55;7.43;;;3.90;99.90;;;;;;5109949;28;20072;-87
2021/12/20 11:19:09;;;;;;;30.45;7.30;;;4.60;99.90;;;;;;5093635;28;20062;-87
2021/12/20 11:21:35;;;;;;;33.05;7.40;;;3.90;99.90;;;;;;5093810;28;20039;-86
2021/12/20 11:24:01;;;;;;;28.90;7.00;;;4.00;99.90;;;;;;5093297;28;20071;-85
2021/12/20 11:26:27;;;;;;;27.05;8.10;;;4.10;99.90;;;;;;5059080;28;20078;-86
2021/12/20 11:28:57;;;;;;;26.65;6.78;;;5.40;99.90;;;;;;5111337;28;20047;-85
2021/12/20 11:31:23;;;;;;;26.25;7.38;;;4.10;99.90;;;;;;5093451;28;20067;-84
2021/12/20 11:33:49;;;;;;;27.02;6.75;;;4.10;99.90;;;;;;5093310;28;20044;-84
2021/12/20 11:36:15;;;;;;;33.60;8.10;;;4.30;99.90;;;;;;5092705;28;20479;-84
2021/12/20 11:38:40;;;;;;;27.08;8.70;;;4.40;99.90;;;;;;5127083;28;20054;-84
2021/12/20 11:41:06;;;;;;;22.13;7.30;;;4.70;99.90;;;;;;5093113;28;20074;-84
2021/12/20 11:43:32;;;;;;;28.63;7.32;;;4.40;99.90;;;;;;5110822;28;20048;-85
2021/12/20 11:45:58;;;;;;;28.50;7.57;;;4.50;99.90;;;;;;5127121;28;20541;-83
2021/12/20 11:48:24;;;;;;;24.52;7.85;;;4.50;99.90;;;;;;5091870;28;20138;-85
2021/12/20 11:50:55;;;;;;;34.30;10.63;;;4.40;99.90;;;;;;5127088;28;20087;-87
2021/12/20 11:53:20;;;;;;;29.85;10.88;;;4.40;99.90;;;;;;5076222;28;20059;-88
2021/12/20 11:55:48;;;;;;;28.10;10.30;;;4.50;99.90;;;;;;5111189;28;20116;-88
2021/12/20 11:58:17;;;;;;;19.90;7.95;;;4.40;99.90;;;;;;5092623;28;20051;-87
2021/12/20 12:00:48;;;;;;;21.80;8.02;;;4.40;99.90;;;;;;5110637;28;20036;-87
2021/12/20 12:03:22;;;;;;;18.65;7.80;;;4.40;99.90;;;;;;5093693;28;20086;-87
2021/12/20 12:05:55;;;;;;;17.13;6.93;;;4.50;99.90;;;;;;5093134;28;20475;-84
2021/12/20 12:08:38;;;;;;;13.20;7.35;;;4.40;99.90;;;;;;5076491;28;20069;-83
2021/12/20 12:11:04;;;;;;;21.02;8.55;;;4.50;99.90;;;;;;5078752;28;20114;-84
2021/12/20 12:13:46;;;;;;;18.23;8.50;;;4.80;99.90;;;;;;5109552;28;20091;-83
2021/12/20 12:16:27;;;;;;;18.42;7.43;;;4.50;99.90;;;;;;5095093;28;20052;-83
2021/12/20 12:18:53;;;;;;;24.52;10.93;;;4.50;99.90;;;;;;5080676;28;20051;-83
2021/12/20 12:21:39;;;;;;;25.77;10.88;;;5.00;99.90;;;;;;5092644;28;20122;-85
2021/12/20 12:24:10;;;;;;;26.77;10.15;;;4.60;99.90;;;;;;5110414;28;20047;-85
2021/12/20 12:26:43;;;;;;;17.08;8.25;;;4.80;99.90;;;;;;5076412;28;20148;-84
2021/12/20 12:29:16;;;;;;;21.75;8.88;;;4.60;99.90;;;;;;5077540;28;20051;-84
2021/12/20 12:31:58;;;;;;;20.42;7.80;;;4.60;99.90;;;;;;5093101;28;20039;-84
2021/12/20 12:34:29;;;;;;;17.92;7.90;;;4.80;99.90;;;;;;5109450;28;20507;-84
2021/12/20 12:37:16;;;;;;;19.63;7.55;;;4.80;99.90;;;;;;5076529;28;20052;-84
2021/12/20 12:39:42;;;;;;;16.38;7.20;;;4.80;99.90;;;;;;5109849;28;20052;-84
2021/12/20 12:42:08;;;;;;;17.35;7.00;;;5.50;99.90;;;;;;5126460;28;20040;-83
2021/12/20 12:44:34;;;;;;;22.92;6.95;;;4.90;99.90;;;;;;5075151;28;20134;-84
2021/12/20 12:47:13;;;;;;;24.05;7.00;;;5.00;99.90;;;;;;5109099;28;20048;-83
2021/12/20 12:49:49;;;;;;;16.48;6.55;;;4.90;99.90;;;;;;5077150;28;20051;-83
2021/12/20 12:52:18;;;;;;;17.35;7.53;;;4.80;99.90;;;;;;5109157;28;20512;-84
2021/12/20 12:54:57;;;;;;;21.17;6.32;;;4.80;99.90;;;;;;5109112;28;20424;-84
2021/12/20 12:57:23;;;;;;;14.32;6.65;;;4.80;99.90;;;;;;5108615;28;20051;-84
2021/12/20 12:59:55;;;;;;;16.02;6.65;;;4.80;99.90;;;;;;5109333;28;20043;-84
2021/12/20 13:02:24;;;;;;;15.57;6.95;;;4.80;99.90;;;;;;5111762;28;20051;-83
2021/12/20 13:04:57;;;;;;;16.65;6.40;;;4.80;99.90;;;;;;5095980;28;20046;-83
2021/12/20 13:07:31;;;;;;;18.08;6.88;;;4.80;99.90;;;;;;5112557;28;20406;-84